Latest Weather Observations for Townsville

IDQ60801

Issued at 11:02 pm EST Tuesday 28 January 2020 (issued every 10 minutes, with the page automatically refreshed every 10 minutes)

About weather observations | Map of weather stations | Latest weather observations for QLD | Other Formats
Station Details ID: 032040 Name: TOWNSVILLE AERO Lat: -19.25 Lon: 146.77 Height: 4.34 m
Data from the previous 72 hours. | See also: Recent months at Townsville
Date/Time
EST
Temp
°C
App
Temp
°C
Dew
Point
°C
Rel
Hum
%
Delta-T
°C
Wind Press
QNH
hPa
Press
MSL
hPa
Rain since
9am
mm
Dir  Spd
km/h
Gust
km/h
Spd
kts
Gust
kts
28/11:00pm 26.9 29.7 25.3 91 1.1 E 20 26 11 14 1009.5 1009.4 2.2
28/10:30pm 27.1 30.2 25.7 92 1.0 E 20 30 11 16 1009.3 1009.2 1.8
28/10:00pm 26.9 30.6 25.7 93 0.8 E 17 28 9 15 1009.1 1009.0 1.2
28/09:53pm 27.0 30.4 25.8 93 0.8 E 19 28 10 15 1009.2 1009.1 0.6
28/09:34pm 27.1 29.4 25.1 89 1.4 ENE 22 28 12 15 1009.3 1009.2 0.4
28/09:30pm 27.1 28.9 24.9 88 1.5 E 24 30 13 16 1009.2 1009.1 0.2
28/09:21pm 27.2 30.4 25.0 88 1.5 ENE 17 26 9 14 1009.2 1009.1 0.2
28/09:00pm 27.2 29.7 24.8 87 1.7 ENE 20 28 11 15 1009.0 1008.9 0.2
28/08:41pm 27.3 29.8 24.7 86 1.8 ENE 20 28 11 15 1008.9 1008.8 0.2
28/08:30pm 27.0 29.7 25.0 89 1.4 E 20 30 11 16 1008.8 1008.7 0.2
28/08:00pm 26.8 28.8 25.2 91 1.1 E 24 32 13 17 1008.4 1008.3 0.0
28/07:39pm 27.0 29.0 25.2 90 1.3 ENE 24 32 13 17 1008.0 1007.9 0.0
28/07:30pm 26.9 28.4 24.9 89 1.4 E 26 33 14 18 1007.8 1007.7 0.0
28/07:00pm 27.1 29.1 25.1 89 1.4 ENE 24 30 13 16 1007.5 1007.4 0.0
28/06:30pm 27.0 27.4 24.5 86 1.7 NE 30 35 16 19 1007.0 1006.9 0.0
28/06:19pm 27.3 28.1 24.4 84 2.0 ENE 28 35 15 19 1006.9 1006.8 0.0
28/06:00pm 27.6 29.9 25.6 89 1.4 ENE 24 30 13 16 1006.8 1006.7 0.0
28/05:57pm 27.6 30.0 25.2 87 1.7 ENE 22 28 12 15 1006.7 1006.6 0.0
28/05:30pm 27.9 30.0 24.7 83 2.2 NE 22 28 12 15 1006.4 1006.3 0.0
28/05:00pm 28.3 31.1 25.3 84 2.1 NE 20 28 11 15 1006.3 1006.2 0.0
28/04:30pm 29.3 31.6 25.7 81 2.5 NE 24 30 13 16 1006.0 1005.9 0.0
28/04:00pm 28.6 31.4 25.0 81 2.5 NE 19 24 10 13 1006.0 1005.9 0.0
28/03:30pm 27.9 29.7 24.3 81 2.5 NE 22 30 12 16 1006.1 1006.0 0.0
28/03:00pm 28.7 31.0 25.7 84 2.1 ENE 24 30 13 16 1006.3 1006.2 0.0
28/02:30pm 28.5 29.5 24.7 80 2.7 ENE 28 35 15 19 1006.5 1006.4 0.0
28/02:00pm 29.2 31.2 25.2 79 2.8 NE 24 28 13 15 1006.6 1006.5 0.0
28/01:30pm 30.3 33.4 26.9 82 2.4 ENE 24 30 13 16 1006.8 1006.7 0.0
28/01:00pm 30.2 34.1 24.8 73 3.8 NE 13 20 7 11 1007.3 1007.2 0.0
28/12:30pm 29.8 33.3 24.2 72 3.9 NE 13 19 7 10 1007.7 1007.6 0.0
28/12:00pm 28.6 33.3 25.0 81 2.5 ENE 9 15 5 8 1008.1 1008.0 0.0
28/11:30am 28.1 32.0 24.9 83 2.2 NE 13 17 7 9 1008.4 1008.3 0.0
28/11:00am 28.0 32.6 24.8 83 2.2 NE 9 11 5 6 1008.4 1008.3 0.0
28/10:30am 27.6 33.2 24.8 85 2.0 S 4 9 2 5 1008.2 1008.1 0.0
28/10:00am 27.1 32.2 24.6 86 1.7 SW 6 9 3 5 1008.4 1008.3 0.0
28/09:30am 26.6 31.5 24.6 89 1.4 SW 7 9 4 5 1008.6 1008.5 0.0
28/09:00am 25.9 30.0 24.5 92 1.0 SW 11 11 6 6 1008.7 1008.6 99.2
28/08:30am 25.7 29.4 24.5 93 0.8 SW 13 17 7 9 1008.5 1008.4 99.2
28/08:00am 25.6 30.1 24.6 94 0.7 SW 9 11 5 6 1008.1 1008.0 99.2
28/07:30am 25.3 29.9 24.8 97 0.3 SW 9 11 5 6 1007.8 1007.7 99.2
28/07:00am 24.8 28.9 24.5 98 0.2 SSE 11 11 6 6 1007.3 1007.2 99.2
28/06:49am 24.8 29.7 24.6 99 0.1 SE 7 11 4 6 1007.2 1007.1 99.2
28/06:30am 24.6 29.5 24.6 100 0.0 S 7 9 4 5 1006.9 1006.8 99.2
28/06:00am 24.6 28.7 24.6 100 0.0 SSW 11 15 6 8 1006.3 1006.2 99.2
28/05:44am 24.6 30.8 24.6 100 0.0 CALM 0 0 0 0 1006.2 1006.1 99.2
28/05:30am 24.5 30.6 24.5 100 0.0 CALM 0 0 0 0 1006.1 1006.0 99.0
28/05:00am 24.5 29.5 24.5 100 0.0 SSE 6 9 3 5 1005.8 1005.7 99.0
28/04:30am 24.5 30.6 24.5 100 0.0 CALM 0 0 0 0 1006.0 1005.9 99.0
28/04:00am 24.5 30.6 24.5 100 0.0 CALM 0 6 0 3 1005.8 1005.7 99.0
28/03:30am 24.5 28.9 24.5 100 0.0 SSE 9 13 5 7 1005.8 1005.7 98.8
28/03:00am 24.6 28.7 24.6 100 0.0 SSE 11 15 6 8 1006.1 1006.0 98.6
28/02:30am 24.5 28.2 24.5 100 0.0 SSE 13 17 7 9 1006.5 1006.4 98.6
28/02:00am 24.4 28.0 24.4 100 0.0 S 13 17 7 9 1006.7 1006.6 98.6
28/01:47am 24.5 - - - - S 13 15 7 8 1006.8 1006.7 98.6
28/01:36am 24.5 - - - - SSE 15 20 8 11 1007.0 1006.9 98.6
28/01:30am 24.4 - - - - SSE 11 20 6 11 1007.1 1007.0 98.6
28/01:00am 24.2 - - - - NE 7 11 4 6 1007.5 1007.4 98.2
28/12:30am 24.3 - - - - SSE 19 26 10 14 1007.8 1007.7 95.8
28/12:00am 24.7 - - - - SE 11 15 6 8 1008.1 1008.0 88.0
 
Date/Time
EST
Temp
°C
App
Temp
°C
Dew
Point
°C
Rel
Hum
%
Delta-T
°C
Wind Press
QNH
hPa
Press
MSL
hPa
Rain since
9am
mm
Dir  Spd
km/h
Gust
km/h
Spd
kts
Gust
kts
27/11:30pm 24.7 - - - - SE 13 15 7 8 1008.3 1008.2 86.8
27/11:11pm 24.7 - - - - SE 15 19 8 10 1008.3 1008.2 86.8
27/11:00pm 24.8 - - - - SE 15 17 8 9 1008.4 1008.3 86.8
27/10:30pm 24.8 - - - - SE 13 17 7 9 1008.8 1008.7 86.8
27/10:00pm 24.9 - - - - SE 13 15 7 8 1008.6 1008.5 86.2
27/09:35pm 24.8 - - - - SE 11 15 6 8 1008.5 1008.4 85.4
27/09:30pm 24.8 - - - - SE 11 13 6 7 1008.5 1008.4 85.2
27/09:09pm 24.6 - - - - E 17 22 9 12 1008.4 1008.3 83.0
27/09:04pm 24.8 - - - - E 15 22 8 12 1008.2 1008.1 82.0
27/09:00pm 24.8 - - - - ESE 13 19 7 10 1008.2 1008.1 81.4
27/08:48pm 24.7 - - - - SE 13 19 7 10 1008.2 1008.1 80.6
27/08:40pm 24.7 - - - - ESE 17 22 9 12 1008.0 1007.9 79.6
27/08:30pm 24.8 - - - - ESE 13 17 7 9 1008.0 1007.9 77.4
27/08:29pm 24.8 - - - - ESE 11 15 6 8 1008.0 1007.9 77.0
27/08:14pm 24.6 - - - - ESE 24 32 13 17 1007.6 1007.5 71.0
27/08:00pm 24.6 - - - - SE 28 33 15 18 1007.6 1007.5 60.4
27/07:57pm 24.6 - - - - SE 26 33 14 18 1007.5 1007.4 56.0
27/07:30pm 24.9 - - - - SE 15 22 8 12 1007.3 1007.2 40.8
27/07:00pm 25.4 29.3 25.4 100 0.0 SE 15 24 8 13 1007.0 1006.9 27.4
27/06:30pm 25.6 30.2 25.3 98 0.2 E 11 15 6 8 1006.6 1006.5 17.6
27/06:15pm 25.7 29.9 25.4 98 0.2 ESE 13 19 7 10 1006.5 1006.4 15.0
27/06:00pm 25.8 30.3 25.8 100 0.0 E 13 19 7 10 1006.3 1006.2 14.8
27/05:30pm 25.6 27.7 25.4 99 0.1 ENE 24 33 13 18 1006.0 1005.9 13.2
27/05:03pm 26.3 28.5 26.0 98 0.2 ENE 26 32 14 17 1005.8 1005.7 10.8
27/05:00pm 26.3 28.7 25.8 97 0.4 ENE 24 30 13 16 1005.7 1005.6 10.6
27/04:49pm 26.8 30.0 25.9 95 0.6 ENE 20 28 11 15 1005.6 1005.5 10.2
27/04:30pm 27.2 29.5 25.6 91 1.1 ENE 24 30 13 16 1005.5 1005.4 10.0
27/04:21pm 27.2 29.6 25.2 89 1.4 ENE 22 28 12 15 1005.5 1005.4 10.0
27/04:00pm 27.7 29.9 25.5 88 1.6 ENE 24 28 13 15 1005.6 1005.5 10.0
27/03:33pm 28.9 31.5 26.1 85 2.0 ENE 24 30 13 16 1005.6 1005.5 9.8
27/03:30pm 28.5 31.1 25.5 84 2.1 ENE 22 28 12 15 1005.7 1005.6 9.8
27/03:00pm 28.1 31.1 25.3 85 2.0 ENE 19 24 10 13 1006.0 1005.9 9.8
27/02:46pm 27.9 31.0 25.7 88 1.6 ENE 20 26 11 14 1006.1 1006.0 9.8
27/02:30pm 27.8 30.7 25.4 87 1.7 ENE 20 26 11 14 1006.2 1006.1 9.8
27/02:10pm 27.5 31.7 25.9 91 1.1 ENE 15 20 8 11 1006.5 1006.4 9.8
27/02:00pm 26.8 30.9 25.8 94 0.7 ENE 15 19 8 10 1006.7 1006.6 9.8
27/01:34pm 26.7 30.4 25.7 94 0.7 NE 17 22 9 12 1007.0 1006.9 9.6
27/01:30pm 26.8 30.3 25.4 92 1.0 ENE 17 22 9 12 1007.0 1006.9 9.6
27/01:18pm 27.6 32.6 26.0 91 1.1 NE 11 15 6 8 1007.2 1007.1 9.6
27/01:04pm 26.6 30.6 25.0 91 1.1 NNE 13 17 7 9 1007.6 1007.5 9.6
27/01:00pm 26.8 31.0 24.8 89 1.4 NE 11 17 6 9 1007.7 1007.6 9.6
27/12:30pm 27.4 31.4 25.0 87 1.7 E 13 17 7 9 1008.1 1008.0 9.6
27/12:01pm 27.1 30.9 24.7 87 1.7 E 13 17 7 9 1008.5 1008.4 9.6
27/12:00pm 27.2 31.2 25.0 88 1.5 E 13 17 7 9 1008.5 1008.4 9.6
27/11:38am 27.0 30.7 25.2 90 1.3 ENE 15 19 8 10 1008.9 1008.8 9.6
27/11:30am 26.9 30.4 24.9 89 1.4 ENE 15 19 8 10 1009.0 1008.9 9.6
27/11:00am 26.3 30.5 25.3 94 0.7 E 13 17 7 9 1009.1 1009.0 9.6
27/10:30am 25.8 30.5 25.5 98 0.2 ESE 11 13 6 7 1009.2 1009.1 9.6
27/10:27am 25.7 30.3 25.4 98 0.2 ESE 11 15 6 8 1009.3 1009.2 9.4
27/10:23am 25.7 30.2 25.2 97 0.3 ESE 11 15 6 8 1009.3 1009.2 9.4
27/10:00am 25.1 29.1 25.1 100 0.0 E 13 17 7 9 1009.5 1009.4 9.0
27/09:51am 25.3 29.5 25.3 100 0.0 ESE 13 17 7 9 1009.6 1009.5 8.8
27/09:48am 24.9 28.4 24.9 100 0.0 ESE 15 17 8 9 1009.6 1009.5 8.6
27/09:30am 24.8 28.3 24.8 100 0.0 ESE 15 19 8 10 1009.8 1009.7 7.2
27/09:00am 24.6 28.0 24.6 100 0.0 E 15 20 8 11 1009.6 1009.5 12.4
27/08:30am 24.6 28.3 24.6 100 0.0 ESE 13 13 7 7 1009.5 1009.4 8.6
27/08:00am 24.5 28.1 24.3 99 0.1 ESE 13 13 7 7 1009.4 1009.3 5.2
27/07:53am 24.6 28.5 24.3 98 0.2 ESE 11 13 6 7 1009.4 1009.3 4.4
27/07:30am 24.4 27.9 24.2 99 0.1 E 13 15 7 8 1009.2 1009.1 4.0
27/07:00am 24.5 28.4 24.3 99 0.1 E 11 15 6 8 1008.9 1008.8 4.0
27/06:30am 25.0 30.8 24.5 97 0.3 NE 2 9 1 5 1008.5 1008.4 4.0
27/06:05am 24.7 29.1 24.4 98 0.2 NW 9 15 5 8 1008.2 1008.1 4.0
27/06:00am 24.8 28.5 24.5 98 0.2 WNW 13 19 7 10 1008.0 1007.9 4.0
27/05:30am 25.4 29.6 24.7 96 0.5 WSW 11 15 6 8 1007.8 1007.7 4.0
27/05:12am 25.7 31.0 25.2 97 0.3 S 7 9 4 5 1007.6 1007.5 4.0
27/05:00am 25.8 30.7 25.3 97 0.3 SSE 9 11 5 6 1007.5 1007.4 4.0
27/04:30am 25.9 32.5 25.2 96 0.5 CALM 0 0 0 0 1007.2 1007.1 4.0
27/04:10am 25.9 31.2 25.0 95 0.6 ENE 6 7 3 4 1007.1 1007.0 4.0
27/04:00am 25.9 31.2 24.9 94 0.7 NNE 6 7 3 4 1007.1 1007.0 4.0
27/03:55am 25.8 30.8 24.8 94 0.7 NNE 7 7 4 4 1007.0 1006.9 4.0
27/03:32am 26.1 30.7 25.4 96 0.5 NE 11 15 6 8 1007.0 1006.9 4.0
27/03:30am 26.0 30.4 25.1 95 0.6 NE 11 15 6 8 1007.0 1006.9 4.0
27/03:00am 25.8 30.0 25.3 97 0.4 NNE 13 19 7 10 1007.2 1007.1 4.0
27/02:30am 26.2 30.8 25.3 95 0.6 ENE 11 15 6 8 1007.3 1007.2 4.0
27/02:13am 26.1 30.5 25.1 94 0.7 ENE 11 17 6 9 1007.3 1007.2 4.0
27/02:00am 26.2 30.6 25.0 93 0.8 ENE 11 15 6 8 1007.4 1007.3 4.0
27/01:30am 26.0 31.2 25.1 95 0.6 ENE 7 11 4 6 1007.8 1007.7 4.0
27/01:00am 25.9 30.2 24.9 94 0.7 ESE 11 13 6 7 1008.0 1007.9 4.0
27/12:30am 25.8 28.9 24.8 94 0.7 E 17 20 9 11 1008.7 1008.6 4.0
27/12:00am 26.0 30.8 25.1 95 0.6 E 9 13 5 7 1009.2 1009.1 4.0
 
Date/Time
EST
Temp
°C
App
Temp
°C
Dew
Point
°C
Rel
Hum
%
Delta-T
°C
Wind Press
QNH
hPa
Press
MSL
hPa
Rain since
9am
mm
Dir  Spd
km/h
Gust
km/h
Spd
kts
Gust
kts
26/11:44pm 25.9 30.0 25.2 96 0.5 ENE 13 17 7 9 1009.2 1009.1 4.0
26/11:41pm 25.8 29.7 24.9 95 0.6 ENE 13 19 7 10 1009.2 1009.1 3.8
26/11:30pm 25.8 29.8 25.1 96 0.5 E 13 19 7 10 1009.3 1009.2 3.8
26/11:07pm 26.2 30.3 25.2 94 0.7 E 13 19 7 10 1009.5 1009.4 1.6
26/11:04pm 26.3 30.1 25.3 94 0.7 E 15 24 8 13 1009.5 1009.4 1.6
26/11:00pm 26.4 29.8 25.2 93 0.8 E 17 28 9 15 1009.5 1009.4 1.4
26/10:30pm 27.8 31.9 25.2 86 1.8 ENE 13 19 7 10 1009.3 1009.2 1.2
26/10:00pm 27.7 31.5 25.3 87 1.7 ENE 15 20 8 11 1009.1 1009.0 1.2
26/09:30pm 27.6 31.3 25.2 87 1.7 ENE 15 19 8 10 1009.0 1008.9 1.2
26/09:00pm 27.3 30.3 25.3 89 1.4 ENE 19 22 10 12 1008.8 1008.7 1.0
26/08:30pm 28.2 30.5 24.4 80 2.6 ENE 20 26 11 14 1009.0 1008.9 0.8
26/08:00pm 28.2 30.4 24.8 82 2.4 ENE 22 30 12 16 1008.6 1008.5 0.8
26/07:30pm 28.3 31.0 25.1 83 2.2 ENE 20 26 11 14 1008.3 1008.2 0.8
26/07:00pm 28.2 30.7 24.8 82 2.4 ENE 20 26 11 14 1007.9 1007.8 0.8
26/06:30pm 28.4 31.2 25.2 83 2.2 ENE 20 26 11 14 1006.9 1006.8 0.8
26/06:00pm 28.6 31.8 25.0 81 2.5 NE 17 20 9 11 1006.8 1006.7 0.8
26/05:30pm 28.8 32.5 25.2 81 2.5 ENE 15 17 8 9 1006.9 1006.8 0.8
26/05:00pm 29.4 33.0 25.6 80 2.7 ENE 17 24 9 13 1006.2 1006.1 0.8
26/04:30pm 30.0 33.0 24.6 73 3.8 NE 17 22 9 12 1006.0 1005.9 0.8
26/04:00pm 29.6 33.0 24.7 75 3.4 NE 15 22 8 12 1006.0 1005.9 0.8
26/03:30pm 29.8 33.5 25.1 76 3.3 NE 15 22 8 12 1006.1 1006.0 0.8
26/03:00pm 30.1 34.0 25.4 76 3.3 ENE 15 19 8 10 1006.5 1006.4 0.8
26/02:30pm 28.7 32.4 24.5 78 2.9 NE 13 19 7 10 1007.0 1006.9 0.8
26/02:00pm 29.0 34.4 26.0 84 2.1 NNE 9 17 5 9 1007.4 1007.3 0.8
26/01:30pm 28.9 34.2 25.3 81 2.5 N 7 13 4 7 1007.9 1007.8 0.8
26/01:00pm 28.6 33.9 24.4 78 2.9 WNW 4 11 2 6 1008.4 1008.3 0.8
26/12:30pm 28.1 33.6 24.7 82 2.4 SSW 4 9 2 5 1008.8 1008.7 0.8
26/12:00pm 27.1 33.0 24.7 87 1.7 S 2 7 1 4 1009.0 1008.9 0.8
26/11:30am 26.6 32.9 24.8 90 1.3 CALM 0 0 0 0 1009.6 1009.5 0.6
26/11:00am 26.4 32.6 24.6 90 1.2 CALM 0 0 0 0 1010.0 1009.9 0.6
26/10:30am 26.2 31.1 24.6 91 1.1 SW 7 11 4 6 1010.2 1010.1 0.2
26/10:00am 26.3 31.2 24.7 91 1.1 SW 7 9 4 5 1010.0 1009.9 0.0
26/09:30am 26.4 30.8 24.4 89 1.4 WSW 9 13 5 7 1010.1 1010.0 0.0
26/09:29am 26.4 30.9 24.6 90 1.2 WSW 9 13 5 7 1010.1 1010.0 0.0
26/09:18am 26.4 30.6 24.8 91 1.1 W 11 15 6 8 1010.2 1010.1 0.0
26/09:12am 26.3 30.2 24.3 89 1.4 W 11 15 6 8 1010.2 1010.1 0.0
26/09:00am 26.2 30.3 24.6 91 1.1 W 11 13 6 7 1010.1 1010.0 16.8
26/08:30am 25.8 30.5 24.9 95 0.6 WSW 9 11 5 6 1010.0 1009.9 16.8
26/08:00am 25.3 30.2 24.6 96 0.5 WSW 7 11 4 6 1010.0 1009.9 16.8
26/07:30am 24.9 29.8 24.6 98 0.2 SW 7 11 4 6 1010.2 1010.1 16.8
26/07:00am 24.5 30.5 24.3 99 0.1 CALM 0 0 0 0 1010.0 1009.9 16.8
26/06:30am 24.4 30.5 24.4 100 0.0 CALM 0 0 0 0 1009.9 1009.8 16.8
26/06:00am 24.2 30.0 24.0 99 0.1 CALM 0 0 0 0 1009.6 1009.5 16.4
26/05:30am 24.0 29.7 23.7 98 0.2 CALM 0 0 0 0 1009.3 1009.2 15.8
26/05:00am 24.0 29.4 23.8 99 0.1 W 2 7 1 4 1009.1 1009.0 14.8
26/04:32am 24.2 28.7 24.0 99 0.1 WNW 7 9 4 5 1008.8 1008.7 14.0
26/04:30am 24.2 28.8 24.2 100 0.0 NW 7 9 4 5 1008.8 1008.7 13.8
26/04:21am 24.3 28.9 24.1 99 0.1 NNE 7 9 4 5 1008.9 1008.8 13.4
26/04:07am 24.3 28.8 24.0 98 0.2 ENE 7 9 4 5 1008.7 1008.6 12.8
26/04:00am 24.3 28.7 23.8 97 0.3 ENE 7 9 4 5 1008.7 1008.6 12.0
26/03:43am 24.1 28.0 23.6 97 0.3 ENE 9 11 5 6 1008.7 1008.6 10.8
26/03:30am 24.2 27.9 23.9 98 0.2 E 11 11 6 6 1008.7 1008.6 9.6
26/03:23am 24.3 27.9 23.8 97 0.3 ESE 11 13 6 7 1008.7 1008.6 8.6
26/03:00am 24.4 27.1 24.1 98 0.2 SSW 17 26 9 14 1008.6 1008.5 5.4
26/02:30am 24.6 27.4 24.3 98 0.2 WSW 17 20 9 11 1008.4 1008.3 3.2
26/02:00am 24.7 24.7 24.4 98 0.2 WSW 32 43 17 23 1008.3 1008.2 2.2
26/01:43am 25.1 25.7 24.1 94 0.7 W 28 41 15 22 1008.5 1008.4 1.8
26/01:30am 26.5 31.6 25.5 94 0.7 NNW 9 15 5 8 1008.6 1008.5 1.4
26/01:00am 26.3 31.6 24.9 92 1.0 NNW 6 7 3 4 1008.7 1008.6 0.6
26/12:30am 27.0 31.2 24.8 88 1.5 NNW 11 17 6 9 1008.9 1008.8 0.2
26/12:00am 29.4 32.2 24.9 77 3.2 NE 19 24 10 13 1009.3 1009.2 0.0
 
Date/Time
EST
Temp
°C
App
Temp
°C
Dew
Point
°C
Rel
Hum
%
Delta-T
°C
Wind Press
QNH
hPa
Press
MSL
hPa
Rain since
9am
mm
Dir  Spd
km/h
Gust
km/h
Spd
kts
Gust
kts
25/11:30pm 29.4 32.2 24.9 77 3.2 ENE 19 22 10 12 1009.3 1009.2 0.0

Other formats

Comma delimited format used in spreadsheet applications
http://www.bom.gov.au/fwo/IDQ60801/IDQ60801.94294.axf

JavaScript Object Notation format (JSON) in row-major order
http://www.bom.gov.au/fwo/IDQ60801/IDQ60801.94294.json

Data quality

Most of these data are generated automatically and are frequently updated. Quality checks on data are not normally performed. It is possible for incorrect values to appear. Refer to information at About Latest Weather Observations and please check the disclaimer before using these data.